createdAt,value
2023-05-19T00:07:07.522Z,0
2023-05-19T00:19:07.568Z,0
2023-05-19T00:31:07.445Z,0
2023-05-19T00:43:07.583Z,0
2023-05-19T00:55:07.384Z,0
2023-05-19T01:07:07.566Z,0
2023-05-19T01:19:07.527Z,0
2023-05-19T01:31:07.504Z,0
2023-05-19T01:43:07.663Z,0
2023-05-19T01:55:07.631Z,0
2023-05-19T02:07:07.572Z,0
2023-05-19T02:19:07.586Z,0
2023-05-19T02:31:07.497Z,0
2023-05-19T02:43:07.794Z,0
2023-05-19T02:55:07.610Z,0
2023-05-19T03:07:07.593Z,0
2023-05-19T03:19:07.789Z,0
2023-05-19T03:31:07.779Z,0
2023-05-19T03:43:07.681Z,0
2023-05-19T03:55:07.641Z,0
2023-05-19T04:07:07.764Z,0
2023-05-19T04:19:07.836Z,0
2023-05-19T04:31:07.693Z,0
2023-05-19T04:43:08.110Z,0
2023-05-19T04:55:07.788Z,0
2023-05-19T05:07:07.814Z,0
2023-05-19T05:19:07.822Z,0
2023-05-19T05:31:07.894Z,0
2023-05-19T05:43:07.845Z,3
2023-05-19T05:55:07.835Z,0
2023-05-19T06:07:07.746Z,0
2023-05-19T06:19:07.955Z,0
2023-05-19T06:31:07.913Z,0
2023-05-19T06:43:08.033Z,0
2023-05-19T06:55:07.775Z,0
2023-05-19T07:07:07.988Z,1
2023-05-19T07:19:07.930Z,0
2023-05-19T07:31:07.900Z,0
2023-05-19T07:43:07.836Z,0
2023-05-19T07:55:08.101Z,1
2023-05-19T08:07:07.943Z,0
2023-05-19T08:19:08.049Z,0
2023-05-19T08:31:07.875Z,0
2023-05-19T08:43:08.062Z,0
2023-05-19T08:55:07.967Z,1
2023-05-19T09:07:08.231Z,0
2023-05-19T09:19:08.069Z,0
2023-05-19T09:31:08.136Z,1
2023-05-19T09:43:08.088Z,12
2023-05-19T09:55:08.132Z,13
2023-05-19T10:07:08.203Z,3
2023-05-19T10:19:08.299Z,7
2023-05-19T10:31:08.052Z,10
2023-05-19T10:43:08.081Z,7
2023-05-19T10:55:08.185Z,6
2023-05-19T11:07:08.168Z,9
2023-05-19T11:19:08.131Z,11
2023-05-19T11:31:08.077Z,6
2023-05-19T11:43:08.239Z,1
2023-05-19T11:55:08.187Z,6
2023-05-19T12:07:08.138Z,10
2023-05-19T12:19:08.154Z,13
2023-05-19T12:31:08.317Z,14
2023-05-19T12:43:08.265Z,10
2023-05-19T12:55:08.296Z,15
2023-05-19T13:07:08.176Z,20
2023-05-19T13:19:13.915Z,7
2023-05-19T13:31:08.344Z,15
2023-05-19T13:43:08.268Z,9
2023-05-19T13:55:08.312Z,8
2023-05-19T14:07:08.352Z,15
2023-05-19T14:19:08.532Z,14
2023-05-19T14:31:08.283Z,11
2023-05-19T14:43:08.281Z,7
2023-05-19T14:55:08.376Z,8
2023-05-19T15:07:10.025Z,5
2023-05-19T15:19:08.317Z,13
2023-05-19T15:31:08.371Z,11
2023-05-19T15:43:08.452Z,7
2023-05-19T15:55:08.574Z,5
2023-05-19T16:07:08.449Z,4
2023-05-19T16:19:08.581Z,8
2023-05-19T16:31:08.460Z,7
2023-05-19T16:43:08.486Z,4
2023-05-19T16:55:08.380Z,1
2023-05-19T17:07:08.572Z,9
2023-05-19T17:19:08.569Z,4
2023-05-19T17:31:08.981Z,3
2023-05-19T17:43:08.445Z,1
2023-05-19T17:55:08.612Z,2
2023-05-19T18:07:08.531Z,0
2023-05-19T18:19:08.636Z,1
2023-05-19T18:31:08.457Z,0
2023-05-19T18:43:08.683Z,0
2023-05-19T18:55:08.588Z,0
2023-05-19T19:07:08.554Z,0
2023-05-19T19:19:08.816Z,0
2023-05-19T19:31:08.734Z,0
2023-05-19T19:43:08.649Z,0
2023-05-19T19:55:08.604Z,0
2023-05-19T20:07:08.739Z,0
2023-05-19T20:19:09.415Z,0
2023-05-19T20:31:08.763Z,0
2023-05-19T20:43:09.005Z,0
2023-05-19T20:55:08.789Z,0
2023-05-19T21:07:08.768Z,0
2023-05-19T21:19:08.691Z,0
2023-05-19T21:31:09.232Z,0
2023-05-19T21:43:08.868Z,0
2023-05-19T21:55:08.788Z,0
2023-05-19T22:07:09.130Z,0
2023-05-19T22:19:08.872Z,0
2023-05-19T22:31:08.940Z,0
2023-05-19T22:43:08.787Z,0
2023-05-19T22:55:08.939Z,0
2023-05-19T23:07:08.884Z,0
2023-05-19T23:19:08.847Z,0
2023-05-19T23:31:08.773Z,0
2023-05-19T23:43:08.911Z,0
2023-05-19T23:55:08.904Z,0
